sensor_id;sensor_type;location;lat;lon;timestamp;P1;durP1;ratioP1;P2;durP2;ratioP2
7047;SDS011;3565;53.254;10.352;2023-12-04T00:03:20;36.03;;;13.60;;
7047;SDS011;3565;53.254;10.352;2023-12-04T00:05:49;32.67;;;13.80;;
7047;SDS011;3565;53.254;10.352;2023-12-04T00:10:56;29.13;;;12.97;;
7047;SDS011;3565;53.254;10.352;2023-12-04T00:13:25;30.83;;;13.57;;
7047;SDS011;3565;53.254;10.352;2023-12-04T00:15:54;34.40;;;14.30;;
7047;SDS011;3565;53.254;10.352;2023-12-04T00:21:00;35.97;;;15.20;;
7047;SDS011;3565;53.254;10.352;2023-12-04T00:23:29;27.43;;;13.43;;
7047;SDS011;3565;53.254;10.352;2023-12-04T00:25:59;30.43;;;14.60;;
7047;SDS011;3565;53.254;10.352;2023-12-04T00:31:06;30.47;;;13.80;;
7047;SDS011;3565;53.254;10.352;2023-12-04T00:33:35;29.80;;;14.67;;
7047;SDS011;3565;53.254;10.352;2023-12-04T00:36:05;29.67;;;14.70;;
7047;SDS011;3565;53.254;10.352;2023-12-04T00:41:13;30.87;;;13.63;;
7047;SDS011;3565;53.254;10.352;2023-12-04T00:43:42;34.07;;;14.77;;
7047;SDS011;3565;53.254;10.352;2023-12-04T00:48:48;33.43;;;14.53;;
7047;SDS011;3565;53.254;10.352;2023-12-04T00:51:17;34.77;;;14.47;;
7047;SDS011;3565;53.254;10.352;2023-12-04T00:53:46;34.43;;;14.87;;
7047;SDS011;3565;53.254;10.352;2023-12-04T00:58:52;33.20;;;15.20;;
7047;SDS011;3565;53.254;10.352;2023-12-04T01:01:21;32.00;;;13.97;;
7047;SDS011;3565;53.254;10.352;2023-12-04T01:03:50;34.93;;;14.83;;
7047;SDS011;3565;53.254;10.352;2023-12-04T01:06:22;32.70;;;14.80;;
7047;SDS011;3565;53.254;10.352;2023-12-04T01:09:01;35.20;;;15.07;;
7047;SDS011;3565;53.254;10.352;2023-12-04T01:11:30;40.93;;;14.70;;
7047;SDS011;3565;53.254;10.352;2023-12-04T01:13:59;31.33;;;14.33;;
7047;SDS011;3565;53.254;10.352;2023-12-04T01:19:05;32.23;;;13.83;;
7047;SDS011;3565;53.254;10.352;2023-12-04T01:21:34;33.23;;;15.33;;
7047;SDS011;3565;53.254;10.352;2023-12-04T01:24:03;31.87;;;15.07;;
7047;SDS011;3565;53.254;10.352;2023-12-04T01:29:13;39.20;;;15.37;;
7047;SDS011;3565;53.254;10.352;2023-12-04T01:34:21;33.53;;;14.77;;
7047;SDS011;3565;53.254;10.352;2023-12-04T01:36:50;32.17;;;13.50;;
7047;SDS011;3565;53.254;10.352;2023-12-04T01:41:56;30.60;;;14.60;;
7047;SDS011;3565;53.254;10.352;2023-12-04T01:47:02;34.40;;;14.00;;
7047;SDS011;3565;53.254;10.352;2023-12-04T01:49:33;32.90;;;15.60;;
7047;SDS011;3565;53.254;10.352;2023-12-04T01:52:03;33.53;;;14.77;;
7047;SDS011;3565;53.254;10.352;2023-12-04T01:57:13;31.73;;;14.27;;
7047;SDS011;3565;53.254;10.352;2023-12-04T01:59:43;30.73;;;14.63;;
7047;SDS011;3565;53.254;10.352;2023-12-04T02:02:22;28.60;;;13.80;;
7047;SDS011;3565;53.254;10.352;2023-12-04T02:04:52;32.30;;;14.80;;
7047;SDS011;3565;53.254;10.352;2023-12-04T02:10:00;29.80;;;13.53;;
7047;SDS011;3565;53.254;10.352;2023-12-04T02:12:29;32.07;;;13.90;;
7047;SDS011;3565;53.254;10.352;2023-12-04T02:14:58;27.60;;;13.90;;
7047;SDS011;3565;53.254;10.352;2023-12-04T02:20:06;31.90;;;13.70;;
7047;SDS011;3565;53.254;10.352;2023-12-04T02:22:38;31.30;;;13.80;;
7047;SDS011;3565;53.254;10.352;2023-12-04T02:25:08;33.90;;;13.73;;
7047;SDS011;3565;53.254;10.352;2023-12-04T02:30:17;28.40;;;11.73;;
7047;SDS011;3565;53.254;10.352;2023-12-04T02:32:48;35.13;;;13.50;;
7047;SDS011;3565;53.254;10.352;2023-12-04T02:37:56;29.13;;;12.60;;
7047;SDS011;3565;53.254;10.352;2023-12-04T02:43:04;28.07;;;12.60;;
7047;SDS011;3565;53.254;10.352;2023-12-04T02:48:10;25.23;;;11.77;;
7047;SDS011;3565;53.254;10.352;2023-12-04T02:50:39;30.30;;;12.90;;
7047;SDS011;3565;53.254;10.352;2023-12-04T02:53:08;26.17;;;12.67;;
7047;SDS011;3565;53.254;10.352;2023-12-04T02:58:14;28.73;;;12.50;;
7047;SDS011;3565;53.254;10.352;2023-12-04T03:00:44;30.17;;;13.10;;
7047;SDS011;3565;53.254;10.352;2023-12-04T03:03:13;27.23;;;13.20;;
7047;SDS011;3565;53.254;10.352;2023-12-04T03:05:42;26.07;;;11.70;;
7047;SDS011;3565;53.254;10.352;2023-12-04T03:08:21;30.13;;;12.50;;
7047;SDS011;3565;53.254;10.352;2023-12-04T03:10:50;26.47;;;13.20;;
7047;SDS011;3565;53.254;10.352;2023-12-04T03:13:20;27.77;;;12.67;;
7047;SDS011;3565;53.254;10.352;2023-12-04T03:18:26;25.60;;;11.50;;
7047;SDS011;3565;53.254;10.352;2023-12-04T03:20:55;28.10;;;12.53;;
7047;SDS011;3565;53.254;10.352;2023-12-04T03:23:24;27.37;;;12.43;;
7047;SDS011;3565;53.254;10.352;2023-12-04T03:25:53;28.30;;;11.80;;
7047;SDS011;3565;53.254;10.352;2023-12-04T03:30:59;27.70;;;13.17;;
7047;SDS011;3565;53.254;10.352;2023-12-04T03:33:29;32.03;;;12.47;;
7047;SDS011;3565;53.254;10.352;2023-12-04T03:35:58;27.33;;;12.57;;
7047;SDS011;3565;53.254;10.352;2023-12-04T03:41:04;26.70;;;12.13;;
7047;SDS011;3565;53.254;10.352;2023-12-04T03:43:36;29.70;;;12.03;;
7047;SDS011;3565;53.254;10.352;2023-12-04T03:46:05;26.57;;;12.47;;
7047;SDS011;3565;53.254;10.352;2023-12-04T03:51:12;23.77;;;11.93;;
7047;SDS011;3565;53.254;10.352;2023-12-04T03:56:18;29.93;;;12.77;;
7047;SDS011;3565;53.254;10.352;2023-12-04T03:58:47;22.73;;;12.03;;
7047;SDS011;3565;53.254;10.352;2023-12-04T04:01:16;27.17;;;11.97;;
7047;SDS011;3565;53.254;10.352;2023-12-04T04:03:45;26.37;;;11.27;;
7047;SDS011;3565;53.254;10.352;2023-12-04T04:08:51;24.33;;;11.17;;
7047;SDS011;3565;53.254;10.352;2023-12-04T04:11:20;25.73;;;11.90;;
7047;SDS011;3565;53.254;10.352;2023-12-04T04:16:26;26.40;;;12.33;;
7047;SDS011;3565;53.254;10.352;2023-12-04T04:18:55;26.57;;;11.93;;
7047;SDS011;3565;53.254;10.352;2023-12-04T04:21:24;26.40;;;11.37;;
7047;SDS011;3565;53.254;10.352;2023-12-04T04:26:30;21.57;;;10.10;;
7047;SDS011;3565;53.254;10.352;2023-12-04T04:28:59;25.60;;;11.57;;
7047;SDS011;3565;53.254;10.352;2023-12-04T04:31:28;22.87;;;10.13;;
7047;SDS011;3565;53.254;10.352;2023-12-04T04:33:57;21.87;;;10.73;;
7047;SDS011;3565;53.254;10.352;2023-12-04T04:39:03;28.27;;;12.07;;
7047;SDS011;3565;53.254;10.352;2023-12-04T04:41:33;26.23;;;10.90;;
7047;SDS011;3565;53.254;10.352;2023-12-04T04:44:02;21.13;;;9.60;;
7047;SDS011;3565;53.254;10.352;2023-12-04T04:49:10;22.40;;;10.77;;
7047;SDS011;3565;53.254;10.352;2023-12-04T04:51:39;27.30;;;11.40;;
7047;SDS011;3565;53.254;10.352;2023-12-04T04:54:09;24.97;;;11.77;;
7047;SDS011;3565;53.254;10.352;2023-12-04T04:59:15;26.37;;;10.93;;
7047;SDS011;3565;53.254;10.352;2023-12-04T05:01:45;27.50;;;10.03;;
7047;SDS011;3565;53.254;10.352;2023-12-04T05:06:52;23.27;;;11.80;;
7047;SDS011;3565;53.254;10.352;2023-12-04T05:09:30;22.73;;;11.07;;
7047;SDS011;3565;53.254;10.352;2023-12-04T05:11:59;24.90;;;12.03;;
7047;SDS011;3565;53.254;10.352;2023-12-04T05:17:05;24.20;;;11.60;;
7047;SDS011;3565;53.254;10.352;2023-12-04T05:19:34;24.17;;;10.83;;
7047;SDS011;3565;53.254;10.352;2023-12-04T05:22:03;21.63;;;10.23;;
7047;SDS011;3565;53.254;10.352;2023-12-04T05:27:10;22.80;;;10.80;;
7047;SDS011;3565;53.254;10.352;2023-12-04T05:29:39;24.60;;;12.03;;
7047;SDS011;3565;53.254;10.352;2023-12-04T05:32:08;25.63;;;11.77;;
7047;SDS011;3565;53.254;10.352;2023-12-04T05:37:15;20.23;;;10.80;;
7047;SDS011;3565;53.254;10.352;2023-12-04T05:39:43;26.57;;;11.90;;
7047;SDS011;3565;53.254;10.352;2023-12-04T05:42:13;28.97;;;12.80;;
7047;SDS011;3565;53.254;10.352;2023-12-04T05:47:19;24.30;;;11.80;;
7047;SDS011;3565;53.254;10.352;2023-12-04T05:49:48;33.50;;;12.53;;
7047;SDS011;3565;53.254;10.352;2023-12-04T05:52:17;28.23;;;11.03;;
7047;SDS011;3565;53.254;10.352;2023-12-04T05:57:23;29.03;;;12.30;;
7047;SDS011;3565;53.254;10.352;2023-12-04T05:59:53;26.77;;;12.47;;
7047;SDS011;3565;53.254;10.352;2023-12-04T06:02:22;29.87;;;12.50;;
7047;SDS011;3565;53.254;10.352;2023-12-04T06:07:29;25.83;;;12.30;;
7047;SDS011;3565;53.254;10.352;2023-12-04T06:09:57;34.67;;;13.20;;
7047;SDS011;3565;53.254;10.352;2023-12-04T06:12:26;28.50;;;13.43;;
7047;SDS011;3565;53.254;10.352;2023-12-04T06:17:33;31.13;;;12.93;;
7047;SDS011;3565;53.254;10.352;2023-12-04T06:20:02;27.13;;;12.93;;
7047;SDS011;3565;53.254;10.352;2023-12-04T06:22:33;24.43;;;11.60;;
7047;SDS011;3565;53.254;10.352;2023-12-04T06:25:14;24.03;;;13.17;;
7047;SDS011;3565;53.254;10.352;2023-12-04T06:30:23;32.50;;;13.37;;
7047;SDS011;3565;53.254;10.352;2023-12-04T06:32:54;29.30;;;11.90;;
7047;SDS011;3565;53.254;10.352;2023-12-04T06:38:04;28.77;;;12.27;;
7047;SDS011;3565;53.254;10.352;2023-12-04T06:40:43;28.23;;;12.80;;
7047;SDS011;3565;53.254;10.352;2023-12-04T06:43:13;26.57;;;12.10;;
7047;SDS011;3565;53.254;10.352;2023-12-04T06:48:23;27.80;;;12.93;;
7047;SDS011;3565;53.254;10.352;2023-12-04T06:50:53;29.50;;;13.07;;
7047;SDS011;3565;53.254;10.352;2023-12-04T06:53:22;33.90;;;13.73;;
7047;SDS011;3565;53.254;10.352;2023-12-04T06:58:28;25.57;;;12.13;;
7047;SDS011;3565;53.254;10.352;2023-12-04T07:00:57;24.93;;;12.10;;
7047;SDS011;3565;53.254;10.352;2023-12-04T07:03:27;23.53;;;11.17;;
7047;SDS011;3565;53.254;10.352;2023-12-04T07:08:33;28.23;;;11.77;;
7047;SDS011;3565;53.254;10.352;2023-12-04T07:11:04;27.20;;;12.53;;
7047;SDS011;3565;53.254;10.352;2023-12-04T07:13:34;23.50;;;12.13;;
7047;SDS011;3565;53.254;10.352;2023-12-04T07:16:05;28.20;;;12.73;;
7047;SDS011;3565;53.254;10.352;2023-12-04T07:21:12;23.03;;;11.47;;
7047;SDS011;3565;53.254;10.352;2023-12-04T07:23:42;28.73;;;11.67;;
7047;SDS011;3565;53.254;10.352;2023-12-04T07:28:48;26.60;;;11.53;;
7047;SDS011;3565;53.254;10.352;2023-12-04T07:31:18;26.77;;;12.40;;
7047;SDS011;3565;53.254;10.352;2023-12-04T07:33:46;30.67;;;12.37;;
7047;SDS011;3565;53.254;10.352;2023-12-04T07:36:15;22.90;;;10.77;;
7047;SDS011;3565;53.254;10.352;2023-12-04T07:41:21;25.63;;;12.37;;
7047;SDS011;3565;53.254;10.352;2023-12-04T07:46:34;28.27;;;11.77;;
7047;SDS011;3565;53.254;10.352;2023-12-04T07:49:03;27.83;;;12.83;;
7047;SDS011;3565;53.254;10.352;2023-12-04T07:51:32;22.67;;;11.93;;
7047;SDS011;3565;53.254;10.352;2023-12-04T07:54:01;26.17;;;12.77;;
7047;SDS011;3565;53.254;10.352;2023-12-04T07:56:31;24.93;;;11.80;;
7047;SDS011;3565;53.254;10.352;2023-12-04T07:59:00;29.83;;;12.00;;
7047;SDS011;3565;53.254;10.352;2023-12-04T08:04:06;29.00;;;12.40;;
7047;SDS011;3565;53.254;10.352;2023-12-04T08:09:12;26.50;;;12.77;;
7047;SDS011;3565;53.254;10.352;2023-12-04T08:11:41;28.43;;;13.20;;
7047;SDS011;3565;53.254;10.352;2023-12-04T08:14:10;27.47;;;11.57;;
7047;SDS011;3565;53.254;10.352;2023-12-04T08:19:17;25.17;;;11.70;;
7047;SDS011;3565;53.254;10.352;2023-12-04T08:21:46;29.20;;;12.73;;
7047;SDS011;3565;53.254;10.352;2023-12-04T08:26:52;27.93;;;12.20;;
7047;SDS011;3565;53.254;10.352;2023-12-04T08:29:21;29.00;;;11.80;;
7047;SDS011;3565;53.254;10.352;2023-12-04T08:31:50;26.53;;;11.93;;
7047;SDS011;3565;53.254;10.352;2023-12-04T08:36:57;28.13;;;12.53;;
7047;SDS011;3565;53.254;10.352;2023-12-04T08:39:26;22.70;;;12.83;;
7047;SDS011;3565;53.254;10.352;2023-12-04T08:41:55;28.20;;;11.80;;
7047;SDS011;3565;53.254;10.352;2023-12-04T08:44:24;25.07;;;12.27;;
7047;SDS011;3565;53.254;10.352;2023-12-04T08:49:30;22.00;;;11.27;;
7047;SDS011;3565;53.254;10.352;2023-12-04T08:52:00;30.50;;;12.80;;
7047;SDS011;3565;53.254;10.352;2023-12-04T08:57:06;24.20;;;11.67;;
7047;SDS011;3565;53.254;10.352;2023-12-04T08:59:36;27.47;;;13.20;;
7047;SDS011;3565;53.254;10.352;2023-12-04T09:02:04;26.27;;;11.83;;
7047;SDS011;3565;53.254;10.352;2023-12-04T09:07:11;20.83;;;10.80;;
7047;SDS011;3565;53.254;10.352;2023-12-04T09:09:41;28.93;;;13.37;;
7047;SDS011;3565;53.254;10.352;2023-12-04T09:12:10;26.30;;;13.87;;
7047;SDS011;3565;53.254;10.352;2023-12-04T09:17:16;26.20;;;12.23;;
7047;SDS011;3565;53.254;10.352;2023-12-04T09:19:46;28.23;;;12.87;;
7047;SDS011;3565;53.254;10.352;2023-12-04T09:22:15;25.70;;;12.57;;
7047;SDS011;3565;53.254;10.352;2023-12-04T09:24:54;29.43;;;12.23;;
7047;SDS011;3565;53.254;10.352;2023-12-04T09:30:00;27.40;;;13.10;;
7047;SDS011;3565;53.254;10.352;2023-12-04T09:32:31;26.27;;;13.33;;
7047;SDS011;3565;53.254;10.352;2023-12-04T09:35:00;27.73;;;12.20;;
7047;SDS011;3565;53.254;10.352;2023-12-04T09:40:09;23.70;;;12.43;;
7047;SDS011;3565;53.254;10.352;2023-12-04T09:42:39;21.63;;;12.20;;
7047;SDS011;3565;53.254;10.352;2023-12-04T09:45:09;25.80;;;13.33;;
7047;SDS011;3565;53.254;10.352;2023-12-04T09:50:17;24.53;;;13.43;;
7047;SDS011;3565;53.254;10.352;2023-12-04T09:52:48;26.03;;;12.00;;
7047;SDS011;3565;53.254;10.352;2023-12-04T09:57:57;24.53;;;10.93;;
7047;SDS011;3565;53.254;10.352;2023-12-04T10:00:26;25.07;;;13.07;;
7047;SDS011;3565;53.254;10.352;2023-12-04T10:02:57;24.87;;;12.00;;
7047;SDS011;3565;53.254;10.352;2023-12-04T10:05:26;21.20;;;11.63;;
7047;SDS011;3565;53.254;10.352;2023-12-04T10:07:55;20.57;;;11.20;;
7047;SDS011;3565;53.254;10.352;2023-12-04T10:10:34;26.43;;;12.50;;
7047;SDS011;3565;53.254;10.352;2023-12-04T10:13:03;25.47;;;12.43;;
7047;SDS011;3565;53.254;10.352;2023-12-04T10:18:12;22.37;;;11.53;;
7047;SDS011;3565;53.254;10.352;2023-12-04T10:20:56;25.63;;;11.80;;
7047;SDS011;3565;53.254;10.352;2023-12-04T10:23:36;26.10;;;12.13;;
7047;SDS011;3565;53.254;10.352;2023-12-04T10:26:15;23.97;;;12.57;;
7047;SDS011;3565;53.254;10.352;2023-12-04T10:28:58;25.60;;;12.33;;
7047;SDS011;3565;53.254;10.352;2023-12-04T10:34:09;26.13;;;12.93;;
7047;SDS011;3565;53.254;10.352;2023-12-04T10:39:15;18.67;;;11.00;;
7047;SDS011;3565;53.254;10.352;2023-12-04T10:41:44;21.73;;;10.77;;
7047;SDS011;3565;53.254;10.352;2023-12-04T10:47:00;22.17;;;10.83;;
7047;SDS011;3565;53.254;10.352;2023-12-04T10:49:30;25.00;;;12.53;;
7047;SDS011;3565;53.254;10.352;2023-12-04T10:52:00;23.60;;;11.93;;
7047;SDS011;3565;53.254;10.352;2023-12-04T10:57:09;24.70;;;12.47;;
7047;SDS011;3565;53.254;10.352;2023-12-04T10:59:39;23.80;;;11.60;;
7047;SDS011;3565;53.254;10.352;2023-12-04T11:02:09;22.60;;;11.07;;
7047;SDS011;3565;53.254;10.352;2023-12-04T11:07:19;23.50;;;11.43;;
7047;SDS011;3565;53.254;10.352;2023-12-04T11:12:29;22.53;;;11.33;;
7047;SDS011;3565;53.254;10.352;2023-12-04T11:14:59;22.23;;;10.67;;
7047;SDS011;3565;53.254;10.352;2023-12-04T11:20:10;24.53;;;12.37;;
7047;SDS011;3565;53.254;10.352;2023-12-04T11:22:42;23.43;;;10.80;;
7047;SDS011;3565;53.254;10.352;2023-12-04T11:25:15;20.13;;;10.07;;
7047;SDS011;3565;53.254;10.352;2023-12-04T11:30:32;20.33;;;10.90;;
7047;SDS011;3565;53.254;10.352;2023-12-04T11:33:01;18.63;;;10.57;;
7047;SDS011;3565;53.254;10.352;2023-12-04T11:38:13;23.07;;;11.13;;
7047;SDS011;3565;53.254;10.352;2023-12-04T11:40:44;20.70;;;11.20;;
7047;SDS011;3565;53.254;10.352;2023-12-04T11:43:27;21.33;;;11.23;;
7047;SDS011;3565;53.254;10.352;2023-12-04T11:46:07;21.67;;;10.30;;
7047;SDS011;3565;53.254;10.352;2023-12-04T11:48:37;21.37;;;11.27;;
7047;SDS011;3565;53.254;10.352;2023-12-04T11:54:18;24.27;;;10.70;;
7047;SDS011;3565;53.254;10.352;2023-12-04T12:00:08;21.93;;;11.30;;
7047;SDS011;3565;53.254;10.352;2023-12-04T12:02:40;22.73;;;10.80;;
7047;SDS011;3565;53.254;10.352;2023-12-04T12:05:11;19.83;;;9.90;;
7047;SDS011;3565;53.254;10.352;2023-12-04T12:10:18;22.17;;;11.03;;
7047;SDS011;3565;53.254;10.352;2023-12-04T12:12:47;20.43;;;10.53;;
7047;SDS011;3565;53.254;10.352;2023-12-04T12:17:53;20.97;;;10.97;;
7047;SDS011;3565;53.254;10.352;2023-12-04T12:20:24;19.23;;;11.20;;
7047;SDS011;3565;53.254;10.352;2023-12-04T12:23:05;19.73;;;10.57;;
7047;SDS011;3565;53.254;10.352;2023-12-04T12:28:12;17.10;;;10.33;;
7047;SDS011;3565;53.254;10.352;2023-12-04T12:30:42;22.87;;;10.93;;
7047;SDS011;3565;53.254;10.352;2023-12-04T12:33:13;20.57;;;9.77;;
7047;SDS011;3565;53.254;10.352;2023-12-04T12:38:19;19.40;;;10.87;;
7047;SDS011;3565;53.254;10.352;2023-12-04T12:40:49;21.97;;;11.07;;
7047;SDS011;3565;53.254;10.352;2023-12-04T12:43:19;20.10;;;10.67;;
7047;SDS011;3565;53.254;10.352;2023-12-04T12:48:27;20.53;;;10.13;;
7047;SDS011;3565;53.254;10.352;2023-12-04T12:50:56;20.27;;;10.53;;
7047;SDS011;3565;53.254;10.352;2023-12-04T12:53:25;19.40;;;10.30;;
7047;SDS011;3565;53.254;10.352;2023-12-04T12:58:31;22.20;;;10.10;;
7047;SDS011;3565;53.254;10.352;2023-12-04T13:01:01;22.07;;;10.30;;
7047;SDS011;3565;53.254;10.352;2023-12-04T13:03:31;19.60;;;10.27;;
7047;SDS011;3565;53.254;10.352;2023-12-04T13:06:04;18.87;;;9.47;;
7047;SDS011;3565;53.254;10.352;2023-12-04T13:08:33;18.93;;;9.90;;
7047;SDS011;3565;53.254;10.352;2023-12-04T13:11:05;18.30;;;8.80;;
7047;SDS011;3565;53.254;10.352;2023-12-04T13:13:34;16.50;;;9.00;;
7047;SDS011;3565;53.254;10.352;2023-12-04T13:16:05;20.23;;;10.27;;
7047;SDS011;3565;53.254;10.352;2023-12-04T13:21:12;18.43;;;10.17;;
7047;SDS011;3565;53.254;10.352;2023-12-04T13:23:41;23.10;;;10.73;;
7047;SDS011;3565;53.254;10.352;2023-12-04T13:26:20;21.67;;;10.93;;
7047;SDS011;3565;53.254;10.352;2023-12-04T13:31:29;19.73;;;9.80;;
7047;SDS011;3565;53.254;10.352;2023-12-04T13:33:58;19.10;;;9.70;;
7047;SDS011;3565;53.254;10.352;2023-12-04T13:36:31;21.50;;;10.27;;
7047;SDS011;3565;53.254;10.352;2023-12-04T13:41:40;20.17;;;10.10;;
7047;SDS011;3565;53.254;10.352;2023-12-04T13:44:26;21.47;;;10.67;;
7047;SDS011;3565;53.254;10.352;2023-12-04T13:46:56;15.27;;;9.17;;
7047;SDS011;3565;53.254;10.352;2023-12-04T13:52:04;20.20;;;10.07;;
7047;SDS011;3565;53.254;10.352;2023-12-04T13:54:34;19.73;;;10.27;;
7047;SDS011;3565;53.254;10.352;2023-12-04T13:57:10;16.83;;;9.17;;
7047;SDS011;3565;53.254;10.352;2023-12-04T14:02:24;22.50;;;10.20;;
7047;SDS011;3565;53.254;10.352;2023-12-04T14:04:54;18.67;;;9.93;;
7047;SDS011;3565;53.254;10.352;2023-12-04T14:07:24;19.40;;;10.67;;
7047;SDS011;3565;53.254;10.352;2023-12-04T14:12:43;21.57;;;10.30;;
7047;SDS011;3565;53.254;10.352;2023-12-04T14:15:12;19.57;;;10.17;;
7047;SDS011;3565;53.254;10.352;2023-12-04T14:17:41;17.13;;;9.40;;
7047;SDS011;3565;53.254;10.352;2023-12-04T14:20:13;19.13;;;10.27;;
7047;SDS011;3565;53.254;10.352;2023-12-04T14:25:21;19.47;;;10.27;;
7047;SDS011;3565;53.254;10.352;2023-12-04T14:27:50;17.93;;;9.90;;
7047;SDS011;3565;53.254;10.352;2023-12-04T14:30:19;17.70;;;9.83;;
7047;SDS011;3565;53.254;10.352;2023-12-04T14:35:26;20.07;;;10.43;;
7047;SDS011;3565;53.254;10.352;2023-12-04T14:37:55;19.67;;;9.63;;
7047;SDS011;3565;53.254;10.352;2023-12-04T14:40:24;20.50;;;10.23;;
7047;SDS011;3565;53.254;10.352;2023-12-04T14:42:53;18.43;;;9.77;;
7047;SDS011;3565;53.254;10.352;2023-12-04T14:45:22;20.53;;;10.07;;
7047;SDS011;3565;53.254;10.352;2023-12-04T14:47:51;17.90;;;9.63;;
7047;SDS011;3565;53.254;10.352;2023-12-04T14:50:31;20.63;;;10.43;;
7047;SDS011;3565;53.254;10.352;2023-12-04T14:53:00;18.17;;;10.20;;
7047;SDS011;3565;53.254;10.352;2023-12-04T14:58:15;18.13;;;9.37;;
7047;SDS011;3565;53.254;10.352;2023-12-04T15:01:02;18.03;;;9.37;;
7047;SDS011;3565;53.254;10.352;2023-12-04T15:03:49;15.63;;;8.57;;
7047;SDS011;3565;53.254;10.352;2023-12-04T15:06:34;16.67;;;9.07;;
7047;SDS011;3565;53.254;10.352;2023-12-04T15:09:15;17.03;;;8.07;;
7047;SDS011;3565;53.254;10.352;2023-12-04T15:14:52;13.93;;;7.87;;
7047;SDS011;3565;53.254;10.352;2023-12-04T15:17:23;12.60;;;7.70;;
7047;SDS011;3565;53.254;10.352;2023-12-04T15:19:59;16.90;;;8.93;;
7047;SDS011;3565;53.254;10.352;2023-12-04T15:25:24;14.90;;;8.40;;
7047;SDS011;3565;53.254;10.352;2023-12-04T15:27:54;13.60;;;8.30;;
7047;SDS011;3565;53.254;10.352;2023-12-04T15:30:28;16.20;;;8.93;;
7047;SDS011;3565;53.254;10.352;2023-12-04T15:35:34;13.80;;;7.87;;
7047;SDS011;3565;53.254;10.352;2023-12-04T15:40:44;12.70;;;8.10;;
7047;SDS011;3565;53.254;10.352;2023-12-04T15:43:14;16.13;;;8.47;;
7047;SDS011;3565;53.254;10.352;2023-12-04T15:45:44;12.57;;;8.00;;
7047;SDS011;3565;53.254;10.352;2023-12-04T15:48:13;13.30;;;7.87;;
7047;SDS011;3565;53.254;10.352;2023-12-04T15:50:53;13.80;;;8.30;;
7047;SDS011;3565;53.254;10.352;2023-12-04T15:53:21;13.60;;;7.83;;
7047;SDS011;3565;53.254;10.352;2023-12-04T15:55:51;13.23;;;7.50;;
7047;SDS011;3565;53.254;10.352;2023-12-04T15:58:20;13.77;;;7.43;;
7047;SDS011;3565;53.254;10.352;2023-12-04T16:00:50;13.47;;;7.50;;
7047;SDS011;3565;53.254;10.352;2023-12-04T16:03:19;12.77;;;7.37;;
7047;SDS011;3565;53.254;10.352;2023-12-04T16:08:26;18.83;;;8.57;;
7047;SDS011;3565;53.254;10.352;2023-12-04T16:10:55;12.20;;;7.50;;
7047;SDS011;3565;53.254;10.352;2023-12-04T16:13:24;14.23;;;7.53;;
7047;SDS011;3565;53.254;10.352;2023-12-04T16:15:53;15.77;;;6.53;;
7047;SDS011;3565;53.254;10.352;2023-12-04T16:18:22;13.07;;;7.20;;
7047;SDS011;3565;53.254;10.352;2023-12-04T16:20:51;12.10;;;7.60;;
7047;SDS011;3565;53.254;10.352;2023-12-04T16:23:20;13.53;;;7.60;;
7047;SDS011;3565;53.254;10.352;2023-12-04T16:28:29;15.37;;;7.03;;
7047;SDS011;3565;53.254;10.352;2023-12-04T16:30:59;10.83;;;6.37;;
7047;SDS011;3565;53.254;10.352;2023-12-04T16:33:28;12.40;;;6.77;;
7047;SDS011;3565;53.254;10.352;2023-12-04T16:35:58;13.93;;;7.07;;
7047;SDS011;3565;53.254;10.352;2023-12-04T16:38:28;12.87;;;6.83;;
7047;SDS011;3565;53.254;10.352;2023-12-04T16:41:07;11.70;;;7.13;;
7047;SDS011;3565;53.254;10.352;2023-12-04T16:43:38;13.07;;;7.10;;
7047;SDS011;3565;53.254;10.352;2023-12-04T16:46:09;12.20;;;6.87;;
7047;SDS011;3565;53.254;10.352;2023-12-04T16:51:16;13.70;;;7.23;;
7047;SDS011;3565;53.254;10.352;2023-12-04T16:53:46;12.63;;;7.20;;
7047;SDS011;3565;53.254;10.352;2023-12-04T16:56:15;11.17;;;6.73;;
7047;SDS011;3565;53.254;10.352;2023-12-04T17:01:21;12.00;;;7.23;;
7047;SDS011;3565;53.254;10.352;2023-12-04T17:03:52;10.87;;;6.70;;
7047;SDS011;3565;53.254;10.352;2023-12-04T17:06:21;13.63;;;7.87;;
7047;SDS011;3565;53.254;10.352;2023-12-04T17:08:52;10.53;;;6.53;;
7047;SDS011;3565;53.254;10.352;2023-12-04T17:11:30;11.07;;;6.03;;
7047;SDS011;3565;53.254;10.352;2023-12-04T17:14:01;13.63;;;7.17;;
7047;SDS011;3565;53.254;10.352;2023-12-04T17:16:30;11.63;;;6.77;;
7047;SDS011;3565;53.254;10.352;2023-12-04T17:19:00;10.43;;;6.07;;
7047;SDS011;3565;53.254;10.352;2023-12-04T17:21:29;8.90;;;6.63;;
7047;SDS011;3565;53.254;10.352;2023-12-04T17:24:07;12.30;;;6.43;;
7047;SDS011;3565;53.254;10.352;2023-12-04T17:26:37;9.20;;;5.53;;
7047;SDS011;3565;53.254;10.352;2023-12-04T17:29:06;11.80;;;7.50;;
7047;SDS011;3565;53.254;10.352;2023-12-04T17:34:12;9.17;;;6.10;;
7047;SDS011;3565;53.254;10.352;2023-12-04T17:36:42;11.77;;;6.67;;
7047;SDS011;3565;53.254;10.352;2023-12-04T17:41:52;11.87;;;6.53;;
7047;SDS011;3565;53.254;10.352;2023-12-04T17:44:21;10.10;;;6.13;;
7047;SDS011;3565;53.254;10.352;2023-12-04T17:46:51;11.10;;;6.20;;
7047;SDS011;3565;53.254;10.352;2023-12-04T17:49:21;10.20;;;6.10;;
7047;SDS011;3565;53.254;10.352;2023-12-04T17:51:50;12.97;;;6.43;;
7047;SDS011;3565;53.254;10.352;2023-12-04T17:54:20;8.07;;;5.60;;
7047;SDS011;3565;53.254;10.352;2023-12-04T17:56:49;9.77;;;5.77;;
7047;SDS011;3565;53.254;10.352;2023-12-04T17:59:18;9.37;;;6.10;;
7047;SDS011;3565;53.254;10.352;2023-12-04T18:01:58;8.00;;;5.77;;
7047;SDS011;3565;53.254;10.352;2023-12-04T18:04:27;9.50;;;6.03;;
7047;SDS011;3565;53.254;10.352;2023-12-04T18:06:56;10.10;;;5.97;;
7047;SDS011;3565;53.254;10.352;2023-12-04T18:09:27;11.50;;;6.70;;
7047;SDS011;3565;53.254;10.352;2023-12-04T18:12:08;9.77;;;6.37;;
7047;SDS011;3565;53.254;10.352;2023-12-04T18:14:37;9.90;;;6.00;;
7047;SDS011;3565;53.254;10.352;2023-12-04T18:17:06;9.47;;;5.47;;
7047;SDS011;3565;53.254;10.352;2023-12-04T18:19:35;10.47;;;5.93;;
7047;SDS011;3565;53.254;10.352;2023-12-04T18:22:13;12.00;;;6.77;;
7047;SDS011;3565;53.254;10.352;2023-12-04T18:24:43;9.90;;;6.07;;
7047;SDS011;3565;53.254;10.352;2023-12-04T18:27:13;9.93;;;5.67;;
7047;SDS011;3565;53.254;10.352;2023-12-04T18:32:23;10.47;;;6.13;;
7047;SDS011;3565;53.254;10.352;2023-12-04T18:34:53;11.70;;;6.57;;
7047;SDS011;3565;53.254;10.352;2023-12-04T18:37:35;8.47;;;6.03;;
7047;SDS011;3565;53.254;10.352;2023-12-04T18:40:08;8.03;;;5.73;;
7047;SDS011;3565;53.254;10.352;2023-12-04T18:45:18;11.40;;;6.10;;
7047;SDS011;3565;53.254;10.352;2023-12-04T18:47:49;10.93;;;5.33;;
7047;SDS011;3565;53.254;10.352;2023-12-04T18:50:21;10.27;;;5.73;;
7047;SDS011;3565;53.254;10.352;2023-12-04T18:52:51;8.47;;;5.53;;
7047;SDS011;3565;53.254;10.352;2023-12-04T18:55:23;10.93;;;6.50;;
7047;SDS011;3565;53.254;10.352;2023-12-04T18:57:52;9.67;;;6.03;;
7047;SDS011;3565;53.254;10.352;2023-12-04T19:00:30;10.20;;;6.23;;
7047;SDS011;3565;53.254;10.352;2023-12-04T19:03:00;10.20;;;6.27;;
7047;SDS011;3565;53.254;10.352;2023-12-04T19:05:29;12.07;;;6.67;;
7047;SDS011;3565;53.254;10.352;2023-12-04T19:07:58;10.17;;;5.80;;
7047;SDS011;3565;53.254;10.352;2023-12-04T19:10:28;12.13;;;6.47;;
7047;SDS011;3565;53.254;10.352;2023-12-04T19:12:57;9.80;;;5.93;;
7047;SDS011;3565;53.254;10.352;2023-12-04T19:15:26;10.33;;;6.27;;
7047;SDS011;3565;53.254;10.352;2023-12-04T19:18:05;10.00;;;6.30;;
7047;SDS011;3565;53.254;10.352;2023-12-04T19:23:11;11.70;;;6.73;;
7047;SDS011;3565;53.254;10.352;2023-12-04T19:25:40;13.10;;;8.23;;